Time;durP1;ratioP1;P1;durP2;ratioP2;P2;SDS_P1;SDS_P2;PMS_P1;PMS_P2;Temp;Humidity;BMP_temperature;BMP_pressure;BME280_temperature;BME280_humidity;BME280_pressure;Samples;Min_cycle;Max_cycle;Signal;HPM_P1;HPM_P2
2023/09/12 15:15:01;;;;;;;0.40;0.40;;;26.40;99.90;;;;;;4865780;29;20268;-67
2023/09/12 15:17:30;;;;;;;0.40;0.40;;;26.40;99.90;;;;;;4870267;29;20217;-66
2023/09/12 15:20:05;;;;;;;0.50;0.50;;;26.70;99.90;;;;;;4859786;29;21087;-68
2023/09/12 15:22:34;;;;;;;0.50;0.50;;;26.60;99.90;;;;;;4869957;29;20233;-66
2023/09/12 15:25:02;;;;;;;0.47;0.47;;;26.50;99.90;;;;;;4867469;29;20214;-67
2023/09/12 15:27:30;;;;;;;0.50;0.50;;;26.60;99.90;;;;;;4853617;29;20210;-66
2023/09/12 15:29:56;;;;;;;0.40;0.40;;;26.40;99.90;;;;;;4849561;29;20667;-67
2023/09/12 15:32:23;;;;;;;0.52;0.52;;;26.30;99.90;;;;;;4869044;29;20275;-68
2023/09/12 15:34:50;;;;;;;4.35;3.25;;;26.30;99.90;;;;;;4870027;29;20300;-66
2023/09/12 15:37:21;;;;;;;3.75;2.70;;;26.20;99.90;;;;;;4871652;29;20635;-67
2023/09/12 15:39:49;;;;;;;3.25;2.90;;;26.00;99.90;;;;;;4858472;29;20430;-67
2023/09/12 15:42:16;;;;;;;3.33;3.03;;;25.80;99.90;;;;;;4872107;29;20636;-67
2023/09/12 15:45:01;;;;;;;3.75;2.70;;;25.70;99.90;;;;;;4871500;29;20212;-66
2023/09/12 15:47:30;;;;;;;2.80;2.40;;;25.30;99.90;;;;;;4870806;29;20211;-66
2023/09/12 15:49:58;;;;;;;5.95;2.90;;;25.40;99.90;;;;;;4853651;29;20193;-75
2023/09/12 15:52:25;;;;;;;3.83;2.85;;;25.10;99.90;;;;;;4856215;29;20675;-65
2023/09/12 15:54:53;;;;;;;3.38;3.08;;;25.10;99.90;;;;;;4869971;29;20261;-65
2023/09/12 15:57:21;;;;;;;2.95;2.55;;;25.00;99.90;;;;;;4871600;29;20289;-66
2023/09/12 15:59:48;;;;;;;4.32;3.47;;;25.20;99.90;;;;;;4870408;29;20210;-65
2023/09/12 16:02:16;;;;;;;3.75;2.40;;;25.20;99.90;;;;;;4865160;29;20229;-65
2023/09/12 16:04:43;;;;;;;3.80;3.00;;;25.20;99.90;;;;;;4872968;29;22469;-65
2023/09/12 16:07:11;;;;;;;6.80;3.17;;;25.10;99.90;;;;;;4863450;29;20206;-65
2023/09/12 16:09:37;;;;;;;6.00;3.25;;;25.20;99.90;;;;;;4873338;29;20194;-64
2023/09/12 16:12:05;;;;;;;3.72;3.30;;;25.30;99.90;;;;;;4877458;29;20559;-64
2023/09/12 16:14:32;;;;;;;5.28;3.88;;;25.30;99.90;;;;;;4871547;29;20234;-73
2023/09/12 16:16:59;;;;;;;6.72;3.60;;;25.40;99.90;;;;;;4871705;29;20201;-65
2023/09/12 16:19:27;;;;;;;5.75;4.43;;;25.30;99.90;;;;;;4875727;29;20204;-64
2023/09/12 16:21:54;;;;;;;8.75;4.22;;;25.20;99.90;;;;;;4863527;29;20206;-65
2023/09/12 16:24:21;;;;;;;4.65;3.85;;;25.30;99.90;;;;;;4865356;29;20212;-68
2023/09/12 16:26:49;;;;;;;4.68;3.38;;;25.20;99.90;;;;;;4872162;29;20201;-65
2023/09/12 16:29:17;;;;;;;4.45;3.95;;;25.10;99.90;;;;;;4862312;29;20205;-70
2023/09/12 16:31:44;;;;;;;3.90;3.50;;;25.10;99.90;;;;;;4865305;29;20236;-71
2023/09/12 16:34:11;;;;;;;5.13;3.40;;;25.00;99.90;;;;;;4873095;29;21893;-66
2023/09/12 16:36:39;;;;;;;6.97;4.03;;;25.00;99.90;;;;;;4870958;29;20218;-67
2023/09/12 16:39:06;;;;;;;4.00;3.60;;;25.00;99.90;;;;;;4874753;29;20721;-72
2023/09/12 16:41:34;;;;;;;4.53;3.55;;;24.80;99.90;;;;;;4866646;29;20204;-67
2023/09/12 16:44:01;;;;;;;4.50;3.53;;;24.60;99.90;;;;;;4875543;29;20206;-66
2023/09/12 16:46:28;;;;;;;4.13;3.65;;;24.60;99.90;;;;;;4865561;29;20248;-66
2023/09/12 16:48:55;;;;;;;3.70;3.40;;;24.60;99.90;;;;;;4863526;29;20210;-67
2023/09/12 16:51:22;;;;;;;4.40;3.20;;;24.50;99.90;;;;;;4876364;29;20235;-67
2023/09/12 16:53:53;;;;;;;3.78;3.35;;;24.60;99.90;;;;;;4879183;29;20193;-67
2023/09/12 16:56:20;;;;;;;5.93;3.60;;;24.60;99.90;;;;;;4879909;29;20671;-67
2023/09/12 16:58:47;;;;;;;4.97;3.08;;;24.60;99.90;;;;;;4871845;29;20201;-66
2023/09/12 17:01:14;;;;;;;8.25;3.97;;;24.40;99.90;;;;;;4871793;29;21001;-68
2023/09/12 17:03:43;;;;;;;4.85;3.97;;;24.40;99.90;;;;;;4871158;29;20270;-66
2023/09/12 17:06:12;;;;;;;8.27;3.50;;;24.40;99.90;;;;;;4876540;29;20209;-66
2023/09/12 17:08:39;;;;;;;8.48;4.18;;;24.40;99.90;;;;;;4871128;29;20268;-65
2023/09/12 17:11:06;;;;;;;4.47;3.42;;;24.40;99.90;;;;;;4883733;29;20213;-69
2023/09/12 17:13:33;;;;;;;10.18;4.47;;;24.40;99.90;;;;;;4875569;29;20606;-65
2023/09/12 17:16:00;;;;;;;7.10;3.83;;;24.30;99.90;;;;;;4874677;29;20297;-64
2023/09/12 17:18:27;;;;;;;4.68;3.67;;;24.20;99.90;;;;;;4868870;29;20228;-64
2023/09/12 17:20:54;;;;;;;9.02;3.45;;;24.10;99.90;;;;;;4868481;29;20622;-64
2023/09/12 17:23:21;;;;;;;5.05;3.55;;;24.00;99.90;;;;;;4877353;29;20194;-64
2023/09/12 17:25:48;;;;;;;8.82;4.00;;;23.90;99.90;;;;;;4875716;29;20590;-64
2023/09/12 17:28:15;;;;;;;7.07;4.25;;;23.70;99.90;;;;;;4866428;29;20269;-64
2023/09/12 17:30:43;;;;;;;6.95;4.38;;;23.60;99.90;;;;;;4865781;29;20206;-65
2023/09/12 17:33:11;;;;;;;5.47;4.38;;;23.60;99.90;;;;;;4880869;29;20241;-67
2023/09/12 17:35:38;;;;;;;5.00;4.30;;;23.60;99.90;;;;;;4875557;29;20290;-65
2023/09/12 17:38:05;;;;;;;5.13;4.13;;;23.50;99.90;;;;;;4870268;29;20333;-66
2023/09/12 17:40:33;;;;;;;6.60;4.15;;;23.40;99.90;;;;;;4870665;29;20267;-65
2023/09/12 17:43:03;;;;;;;5.57;4.80;;;23.40;99.90;;;;;;4877125;29;20229;-67
2023/09/12 17:45:34;;;;;;;6.35;5.03;;;23.30;99.90;;;;;;4866341;29;20201;-67
2023/09/12 17:48:01;;;;;;;5.97;5.28;;;23.30;99.90;;;;;;4873796;29;20268;-68
2023/09/12 17:50:29;;;;;;;7.05;4.97;;;23.20;99.90;;;;;;4862027;29;20272;-70
2023/09/12 17:52:56;;;;;;;7.32;4.93;;;23.20;99.90;;;;;;4863738;29;20210;-73
2023/09/12 17:55:23;;;;;;;8.27;5.20;;;23.20;99.90;;;;;;4872424;29;20293;-70
2023/09/12 17:57:51;;;;;;;6.07;4.53;;;23.10;99.90;;;;;;4871439;29;20285;-67
2023/09/12 18:00:20;;;;;;;8.00;4.93;;;23.00;99.90;;;;;;4875271;29;20197;-67
2023/09/12 18:02:47;;;;;;;7.55;5.07;;;23.00;99.90;;;;;;4871913;29;20216;-67
2023/09/12 18:05:14;;;;;;;6.20;5.28;;;23.00;99.90;;;;;;4873748;29;20206;-67
2023/09/12 18:07:42;;;;;;;7.22;4.70;;;23.00;99.90;;;;;;4877598;29;20202;-70
2023/09/12 18:10:09;;;;;;;5.75;5.00;;;22.80;99.90;;;;;;4874244;29;21030;-70
2023/09/12 18:12:36;;;;;;;9.50;5.80;;;22.70;99.90;;;;;;4868036;29;20631;-67
2023/09/12 18:15:03;;;;;;;6.70;5.68;;;22.60;99.90;;;;;;4873096;29;20566;-67
2023/09/12 18:17:30;;;;;;;5.30;4.78;;;22.60;99.90;;;;;;4881168;29;20666;-66
2023/09/12 18:19:57;;;;;;;7.10;5.57;;;22.60;99.90;;;;;;4867243;29;20682;-66
2023/09/12 18:22:24;;;;;;;7.20;6.05;;;22.60;99.90;;;;;;4886063;29;20207;-67
2023/09/12 18:24:51;;;;;;;8.55;6.15;;;22.60;99.90;;;;;;4874091;29;20565;-67
2023/09/12 18:27:18;;;;;;;12.57;5.78;;;22.60;99.90;;;;;;4881512;29;20284;-66
2023/09/12 18:29:45;;;;;;;7.32;5.95;;;22.60;99.90;;;;;;4872387;29;20197;-75
2023/09/12 18:32:12;;;;;;;6.53;5.53;;;22.60;99.90;;;;;;4863504;29;20604;-68
2023/09/12 18:34:39;;;;;;;7.30;5.60;;;22.50;99.90;;;;;;4882896;29;20308;-68
2023/09/12 18:37:08;;;;;;;7.40;6.18;;;22.50;99.90;;;;;;4864226;29;20691;-70
2023/09/12 18:39:36;;;;;;;7.53;5.57;;;22.50;99.90;;;;;;4862205;29;20208;-71
2023/09/12 18:42:03;;;;;;;6.28;5.63;;;22.50;99.90;;;;;;4864676;29;20769;-67
2023/09/12 18:44:30;;;;;;;7.05;5.80;;;22.50;99.90;;;;;;4877031;29;20257;-68
2023/09/12 18:46:57;;;;;;;6.88;5.60;;;22.40;99.90;;;;;;4872271;29;20698;-69
2023/09/12 18:49:24;;;;;;;7.38;6.05;;;22.40;99.90;;;;;;4860681;29;20634;-67
2023/09/12 18:51:51;;;;;;;8.88;6.10;;;22.30;99.90;;;;;;4857284;29;20221;-67
2023/09/12 18:54:22;;;;;;;6.38;5.43;;;22.30;99.90;;;;;;4872954;29;20325;-65
2023/09/12 18:56:50;;;;;;;8.13;6.03;;;22.20;99.90;;;;;;4880883;29;20626;-64
2023/09/12 18:59:17;;;;;;;7.90;6.32;;;22.20;99.90;;;;;;4876922;29;20285;-66
2023/09/12 19:01:44;;;;;;;9.05;6.53;;;22.10;99.90;;;;;;4872251;29;21030;-66
2023/09/12 19:04:25;;;;;;;8.63;7.05;;;22.10;99.90;;;;;;4870509;29;20621;-65
2023/09/12 19:06:53;;;;;;;9.60;6.53;;;22.00;99.90;;;;;;4862845;29;20220;-64
2023/09/12 19:09:20;;;;;;;8.50;7.07;;;22.10;99.90;;;;;;4862465;29;20206;-64
2023/09/12 19:11:48;;;;;;;9.23;7.15;;;22.10;99.90;;;;;;4883180;29;20203;-64
2023/09/12 19:14:15;;;;;;;10.50;7.03;;;22.10;99.90;;;;;;4875570;29;20766;-68
2023/09/12 19:16:43;;;;;;;6.63;5.50;;;22.20;99.90;;;;;;4877234;29;20746;-64
2023/09/12 19:19:11;;;;;;;9.07;7.43;;;22.20;99.90;;;;;;4878355;29;20528;-66
2023/09/12 19:21:38;;;;;;;10.45;7.35;;;22.20;99.90;;;;;;4874593;29;20505;-67
2023/09/12 19:24:06;;;;;;;11.73;7.45;;;22.30;99.90;;;;;;4873143;29;20712;-65
2023/09/12 19:26:34;;;;;;;10.90;7.63;;;22.30;99.90;;;;;;4875575;29;20201;-64
2023/09/12 19:29:02;;;;;;;10.73;8.05;;;22.30;99.90;;;;;;4862341;29;20205;-64
2023/09/12 19:31:29;;;;;;;13.00;8.55;;;22.30;99.90;;;;;;4877237;29;20278;-65
2023/09/12 19:33:59;;;;;;;10.85;8.30;;;22.20;99.90;;;;;;4875664;29;20615;-66
2023/09/12 19:36:30;;;;;;;12.80;8.68;;;22.10;99.90;;;;;;4879605;29;20543;-68
2023/09/12 19:39:00;;;;;;;11.75;8.43;;;22.10;99.90;;;;;;4859342;29;20683;-68
2023/09/12 19:41:29;;;;;;;13.40;8.73;;;22.20;99.90;;;;;;4878462;29;20906;-68
2023/09/12 19:43:56;;;;;;;9.63;8.40;;;22.20;99.90;;;;;;4844228;29;20229;-69
2023/09/12 19:46:23;;;;;;;15.57;8.60;;;22.30;99.90;;;;;;4872061;29;20202;-67
2023/09/12 19:48:50;;;;;;;12.10;7.50;;;22.40;99.90;;;;;;4871685;29;20547;-68
2023/09/12 19:51:17;;;;;;;11.13;8.05;;;22.40;99.90;;;;;;4875545;29;20585;-66
2023/09/12 19:53:44;;;;;;;9.32;7.20;;;22.50;99.90;;;;;;4858521;29;20334;-64
2023/09/12 19:56:12;;;;;;;12.07;6.97;;;22.50;99.90;;;;;;4874072;29;20544;-67
2023/09/12 19:58:39;;;;;;;10.88;7.07;;;22.40;99.90;;;;;;4857788;29;20691;-64
2023/09/12 20:01:06;;;;;;;9.02;7.32;;;22.40;99.90;;;;;;4873158;29;20658;-64
2023/09/12 20:03:34;;;;;;;8.38;6.57;;;22.40;99.90;;;;;;4873149;29;20194;-67
2023/09/12 20:06:01;;;;;;;11.82;7.30;;;22.40;99.90;;;;;;4874991;29;20361;-69
2023/09/12 20:08:28;;;;;;;7.60;6.15;;;22.40;99.90;;;;;;4860085;29;20224;-69
2023/09/12 20:10:56;;;;;;;8.82;6.55;;;22.40;99.90;;;;;;4875170;29;20209;-67
2023/09/12 20:13:23;;;;;;;10.05;6.82;;;22.40;99.90;;;;;;4878217;29;20241;-67
2023/09/12 20:15:51;;;;;;;8.75;6.03;;;22.40;99.90;;;;;;4875253;29;20597;-68
2023/09/12 20:18:18;;;;;;;10.73;6.70;;;22.30;99.90;;;;;;4891665;29;20197;-67
2023/09/12 20:20:46;;;;;;;9.07;6.72;;;22.30;99.90;;;;;;4870860;29;20218;-67
2023/09/12 20:23:15;;;;;;;7.80;6.43;;;22.20;99.90;;;;;;4875013;29;20197;-67
2023/09/12 20:25:42;;;;;;;9.32;6.70;;;22.20;99.90;;;;;;4874832;29;20250;-68
2023/09/12 20:28:11;;;;;;;7.88;6.82;;;22.20;99.90;;;;;;4873856;29;20198;-67
2023/09/12 20:30:38;;;;;;;9.30;6.80;;;21.80;99.90;;;;;;4878805;29;20660;-67
2023/09/12 20:33:06;;;;;;;13.38;6.63;;;21.80;99.90;;;;;;4888936;29;20238;-67
2023/09/12 20:35:34;;;;;;;12.23;7.57;;;21.60;99.90;;;;;;4874745;29;20281;-71
2023/09/12 20:38:04;;;;;;;9.65;7.63;;;21.60;99.90;;;;;;4875787;29;20269;-70
2023/09/12 20:40:32;;;;;;;11.10;8.27;;;21.40;99.90;;;;;;4875125;29;20650;-67
2023/09/12 20:42:59;;;;;;;11.07;8.20;;;21.30;99.90;;;;;;4872006;29;20613;-67
2023/09/12 20:45:26;;;;;;;11.27;8.73;;;21.30;99.90;;;;;;4872833;29;20619;-66
2023/09/12 20:47:53;;;;;;;8.95;7.43;;;21.40;99.90;;;;;;4868479;29;20307;-67
2023/09/12 20:50:25;;;;;;;8.93;6.93;;;21.50;99.90;;;;;;4871135;29;20254;-70
2023/09/12 20:52:57;;;;;;;10.45;7.70;;;21.50;99.90;;;;;;4876046;29;20190;-70
2023/09/12 20:55:25;;;;;;;13.52;8.32;;;21.60;99.90;;;;;;4874486;29;20249;-70
2023/09/12 20:57:52;;;;;;;11.52;8.32;;;21.70;99.90;;;;;;4881861;29;20711;-71
2023/09/12 21:00:24;;;;;;;13.00;8.25;;;21.60;99.90;;;;;;4873713;29;20622;-71
2023/09/12 21:02:52;;;;;;;11.82;8.85;;;21.50;99.90;;;;;;4889063;29;20206;-69
2023/09/12 21:05:19;;;;;;;11.95;9.65;;;21.40;99.90;;;;;;4863549;29;20562;-74
2023/09/12 21:07:46;;;;;;;11.80;9.55;;;21.20;99.90;;;;;;4879660;29;20201;-69
2023/09/12 21:10:13;;;;;;;14.95;11.07;;;20.80;1.00;;;;;;4890501;29;20730;-70
2023/09/12 21:12:40;;;;;;;15.77;11.50;;;20.60;1.00;;;;;;4877274;29;20534;-71
2023/09/12 21:15:08;;;;;;;18.30;11.73;;;20.50;1.00;;;;;;4866447;29;20234;-72
2023/09/12 21:17:37;;;;;;;11.73;8.52;;;20.10;1.00;;;;;;4875143;29;20260;-75
2023/09/12 21:20:05;;;;;;;10.25;7.90;;;19.80;1.00;;;;;;4885839;29;20206;-73
2023/09/12 21:22:33;;;;;;;8.45;6.63;;;19.70;1.00;;;;;;4877844;29;20190;-72
2023/09/12 21:25:01;;;;;;;13.05;7.78;;;19.50;1.00;;;;;;4875381;29;20234;-73
2023/09/12 21:27:28;;;;;;;8.60;7.53;;;19.50;99.90;;;;;;4865267;29;20208;-74
2023/09/12 21:29:54;;;;;;;11.80;8.68;;;19.40;99.90;;;;;;4865405;29;20674;-74
2023/09/12 21:32:22;;;;;;;10.25;8.50;;;19.40;99.90;;;;;;4861872;29;20222;-71
2023/09/12 21:34:49;;;;;;;11.23;9.20;;;19.50;1.00;;;;;;4868910;29;20209;-72
2023/09/12 21:37:16;;;;;;;16.65;9.25;;;19.60;1.00;;;;;;4866816;29;20618;-70
2023/09/12 21:39:44;;;;;;;13.82;10.43;;;19.70;1.00;;;;;;4875082;29;20301;-70
2023/09/12 21:42:18;;;;;;;15.60;10.55;;;19.80;1.00;;;;;;4873745;29;20615;-71
2023/09/12 21:44:45;;;;;;;14.80;9.57;;;19.80;99.90;;;;;;4874392;29;20281;-73
2023/09/12 21:47:12;;;;;;;16.60;9.90;;;20.00;34.30;;;;;;4874568;29;20599;-73
2023/09/12 21:49:39;;;;;;;15.05;10.85;;;20.00;1.00;;;;;;4871046;29;20733;-73
2023/09/12 21:52:06;;;;;;;15.05;10.88;;;20.10;26.40;;;;;;4879627;29;20252;-73
2023/09/12 21:54:33;;;;;;;18.23;11.60;;;20.20;94.50;;;;;;4871519;29;20213;-72
2023/09/12 21:57:00;;;;;;;14.50;10.15;;;20.40;99.90;;;;;;4874159;29;20241;-75
2023/09/12 21:59:27;;;;;;;13.18;9.25;;;20.30;16.30;;;;;;4871570;29;20656;-69
2023/09/12 22:01:54;;;;;;;15.15;9.85;;;20.10;1.00;;;;;;4878818;29;20269;-68
2023/09/12 22:04:21;;;;;;;19.45;10.35;;;20.00;1.00;;;;;;4874605;29;20201;-69
2023/09/12 22:06:48;;;;;;;13.77;10.23;;;20.00;1.00;;;;;;4868471;29;20216;-66
2023/09/12 22:09:15;;;;;;;13.15;9.65;;;19.80;1.00;;;;;;4873259;29;20194;-66
2023/09/12 22:11:42;;;;;;;14.18;9.65;;;19.70;18.10;;;;;;4867224;29;20283;-66
2023/09/12 22:14:09;;;;;;;15.40;10.00;;;19.70;91.70;;;;;;4870660;29;20270;-69
2023/09/12 22:16:36;;;;;;;15.43;9.75;;;19.60;99.90;;;;;;4875873;29;20232;-69
2023/09/12 22:19:03;;;;;;;12.93;9.38;;;19.50;1.00;;;;;;4888927;29;20214;-66
2023/09/12 22:21:31;;;;;;;16.35;10.52;;;19.40;1.00;;;;;;4877501;29;20198;-66
2023/09/12 22:23:58;;;;;;;15.93;10.93;;;19.40;1.00;;;;;;4871269;29;20665;-67
2023/09/12 22:26:25;;;;;;;13.32;9.73;;;19.30;1.00;;;;;;4889648;29;20210;-66
2023/09/12 22:28:52;;;;;;;16.08;10.40;;;19.30;1.00;;;;;;4875519;29;20249;-67
2023/09/12 22:31:19;;;;;;;17.50;10.82;;;19.20;1.00;;;;;;4875716;29;20718;-66
2023/09/12 22:33:47;;;;;;;17.95;11.63;;;19.20;1.00;;;;;;4873983;29;20224;-66
2023/09/12 22:36:18;;;;;;;13.70;9.20;;;19.30;1.00;;;;;;4873976;29;20197;-72
2023/09/12 22:38:46;;;;;;;14.45;9.65;;;19.40;82.80;;;;;;4884260;29;20209;-67
2023/09/12 22:41:13;;;;;;;15.32;9.93;;;19.30;99.90;;;;;;4870426;29;20225;-67
2023/09/12 22:43:40;;;;;;;13.27;9.50;;;19.20;99.90;;;;;;4883639;29;20303;-67
2023/09/12 22:46:08;;;;;;;0.32;0.32;;;19.20;99.90;;;;;;4878525;29;20253;-67
2023/09/12 22:48:35;;;;;;;0.10;0.10;;;19.20;99.90;;;;;;4895360;29;20654;-67
2023/09/12 22:51:02;;;;;;;0.10;0.10;;;19.10;1.00;;;;;;4878704;29;20273;-65
2023/09/12 22:53:30;;;;;;;0.20;0.20;;;19.10;1.00;;;;;;4881794;29;20733;-68
2023/09/12 22:55:57;;;;;;;0.17;0.17;;;19.10;1.00;;;;;;4876354;29;20225;-68
2023/09/12 22:58:24;;;;;;;0.10;0.10;;;19.00;1.00;;;;;;4873193;29;20213;-67
2023/09/12 23:00:51;;;;;;;0.20;0.20;;;18.90;1.00;;;;;;4892731;29;20197;-68
2023/09/12 23:03:18;;;;;;;0.20;0.20;;;18.80;1.00;;;;;;4880735;29;20602;-68
2023/09/12 23:05:45;;;;;;;0.10;0.10;;;18.90;1.00;;;;;;4877520;29;20236;-68
2023/09/12 23:08:12;;;;;;;0.20;0.20;;;19.00;1.00;;;;;;4886391;29;20974;-68
2023/09/12 23:10:39;;;;;;;0.20;0.20;;;18.80;34.20;;;;;;4878954;29;20261;-68
2023/09/12 23:13:06;;;;;;;0.20;0.20;;;18.90;89.40;;;;;;4892499;29;20629;-68
2023/09/12 23:15:35;;;;;;;0.17;0.17;;;18.90;99.90;;;;;;4877931;29;20222;-75
2023/09/12 23:18:03;;;;;;;0.10;0.10;;;18.90;99.90;;;;;;4877957;29;20221;-71
2023/09/12 23:20:31;;;;;;;0.15;0.15;;;18.80;1.00;;;;;;4865565;29;20261;-73
2023/09/12 23:23:02;;;;;;;0.10;0.10;;;18.90;1.00;;;;;;4889891;29;20249;-71
2023/09/12 23:25:29;;;;;;;0.20;0.20;;;18.90;1.00;;;;;;4873748;29;20691;-70
2023/09/12 23:27:56;;;;;;;0.20;0.20;;;18.80;1.00;;;;;;4861672;29;20776;-71
2023/09/12 23:30:26;;;;;;;0.20;0.20;;;18.80;1.00;;;;;;4872636;29;20259;-78
2023/09/12 23:32:53;;;;;;;0.30;0.30;;;19.00;1.00;;;;;;4872490;29;20693;-67
2023/09/12 23:35:21;;;;;;;0.20;0.20;;;19.00;1.00;;;;;;4879704;29;20722;-67
2023/09/12 23:37:48;;;;;;;0.20;0.20;;;18.90;1.00;;;;;;4892342;29;20728;-67
2023/09/12 23:40:15;;;;;;;0.20;0.20;;;18.80;1.00;;;;;;4892245;29;20736;-75
2023/09/12 23:42:43;;;;;;;0.20;0.20;;;18.90;1.00;;;;;;4889565;29;20193;-67
2023/09/12 23:45:11;;;;;;;0.20;0.20;;;18.90;39.00;;;;;;4877635;29;20216;-67
2023/09/12 23:47:38;;;;;;;0.15;0.15;;;19.00;99.90;;;;;;4895261;29;20341;-68
2023/09/12 23:50:06;;;;;;;0.20;0.20;;;19.20;99.90;;;;;;4872391;29;20721;-69
2023/09/12 23:52:34;;;;;;;0.10;0.10;;;19.30;99.90;;;;;;4880352;29;20548;-67
2023/09/12 23:55:01;;;;;;;0.20;0.20;;;19.20;99.90;;;;;;4875403;29;20210;-68
2023/09/12 23:57:28;;;;;;;0.10;0.10;;;19.30;99.90;;;;;;4877855;29;20213;-67
2023/09/12 23:59:55;;;;;;;0.17;0.17;;;19.40;99.90;;;;;;4875254;29;20581;-67
